createdAt,value
2022-08-21T00:06:50.040Z,69
2022-08-21T00:37:40.762Z,70
2022-08-21T01:08:42.902Z,72
2022-08-21T01:47:42.012Z,74
2022-08-21T02:18:55.615Z,75.5
2022-08-21T02:34:26.769Z,76
2022-08-21T02:57:20.892Z,76.5
2022-08-21T03:36:08.853Z,78
2022-08-21T03:52:02.663Z,78.5
2022-08-21T04:30:39.431Z,79.5
2022-08-21T04:53:56.290Z,80
2022-08-21T05:17:13.126Z,80
2022-08-21T05:56:01.062Z,78.5
2022-08-21T06:11:43.539Z,78
2022-08-21T06:42:45.753Z,76.5
2022-08-21T07:05:51.026Z,75
2022-08-21T07:44:26.942Z,68.5
2022-08-21T07:52:34.972Z,69
2022-08-21T08:23:25.423Z,68.5
2022-08-21T08:46:52.965Z,67
2022-08-21T09:25:17.399Z,67
2022-08-21T09:56:18.939Z,65.5
2022-08-21T10:19:46.349Z,65.5
2022-08-21T10:42:51.101Z,64
2022-08-21T11:21:37.837Z,61
2022-08-21T11:37:31.104Z,59.5
2022-08-21T12:08:20.999Z,58.5
2022-08-21T12:54:41.124Z,53
2022-08-21T13:25:41.609Z,38
2022-08-21T13:41:11.473Z,33.5
2022-08-21T14:20:17.201Z,19
2022-08-21T14:35:23.156Z,14.5
2022-08-21T15:21:49.301Z,17.5
2022-08-21T15:52:59.994Z,27
2022-08-21T16:16:26.095Z,29.5
2022-08-21T16:39:40.341Z,24
2022-08-21T17:02:43.554Z,28.5
2022-08-21T17:25:47.328Z,34
2022-08-21T17:56:59.051Z,40
2022-08-21T18:35:45.151Z,47.5
2022-08-21T18:51:04.417Z,50.5
2022-08-21T19:29:51.087Z,47.5
2022-08-21T19:53:29.708Z,43.5
2022-08-21T20:08:49.099Z,44
2022-08-21T20:47:35.950Z,46.5
2022-08-21T21:10:52.188Z,48
2022-08-21T21:34:19.694Z,49
2022-08-21T22:05:10.014Z,49.5
2022-08-21T22:28:26.279Z,49.5
2022-08-21T22:59:28.103Z,50
2022-08-21T23:15:10.334Z,50
2022-08-21T23:53:46.279Z,50.5
